createdAt,value
2018-06-24T00:02:09.245Z,1.43
2018-06-24T00:04:37.799Z,1.60
2018-06-24T00:07:06.297Z,1.77
2018-06-24T00:09:34.800Z,1.80
2018-06-24T00:12:03.637Z,1.53
2018-06-24T00:14:32.158Z,1.27
2018-06-24T00:17:00.696Z,1.30
2018-06-24T00:19:29.224Z,2.10
2018-06-24T00:21:57.720Z,1.47
2018-06-24T00:24:26.279Z,1.30
2018-06-24T00:26:54.787Z,1.50
2018-06-24T00:29:23.281Z,1.30
2018-06-24T00:31:51.792Z,1.50
2018-06-24T00:34:20.432Z,1.63
2018-06-24T00:36:48.949Z,1.40
2018-06-24T00:39:17.500Z,1.73
2018-06-24T00:41:45.994Z,1.70
2018-06-24T00:44:14.555Z,1.20
2018-06-24T00:46:43.057Z,1.53
2018-06-24T00:49:11.552Z,1.50
2018-06-24T00:51:40.055Z,1.40
2018-06-24T00:54:08.587Z,1.20
2018-06-24T00:56:37.137Z,1.50
2018-06-24T00:59:05.650Z,1.80
2018-06-24T01:01:34.192Z,1.30
2018-06-24T01:04:02.789Z,1.70
2018-06-24T01:06:31.281Z,1.47
2018-06-24T01:08:59.794Z,1.50
2018-06-24T01:11:28.322Z,1.30
2018-06-24T01:13:56.850Z,1.57
2018-06-24T01:16:25.410Z,1.70
2018-06-24T01:18:53.909Z,1.63
2018-06-24T01:21:22.509Z,1.30
2018-06-24T01:23:51.014Z,1.63
2018-06-24T01:26:19.518Z,1.37
2018-06-24T01:28:48.012Z,1.43
2018-06-24T01:31:16.520Z,1.80
2018-06-24T01:33:45.014Z,1.47
2018-06-24T01:36:13.641Z,1.47
2018-06-24T01:38:42.141Z,1.43
2018-06-24T01:41:10.672Z,2.03
2018-06-24T01:43:39.213Z,2.20
2018-06-24T01:46:07.699Z,1.97
2018-06-24T01:48:36.667Z,1.60
2018-06-24T01:51:05.180Z,1.53
2018-06-24T01:53:33.715Z,2.00
2018-06-24T01:56:02.223Z,1.93
2018-06-24T01:58:30.732Z,1.53
2018-06-24T02:00:59.218Z,1.40
2018-06-24T02:03:27.722Z,1.47
2018-06-24T02:05:56.289Z,1.43
2018-06-24T02:08:25.077Z,1.47
2018-06-24T02:10:53.580Z,1.50
2018-06-24T02:13:22.097Z,1.37
2018-06-24T02:15:50.786Z,1.40
2018-06-24T02:18:19.356Z,1.40
2018-06-24T02:20:48.109Z,1.33
2018-06-24T02:23:16.619Z,1.50
2018-06-24T02:25:45.131Z,1.50
2018-06-24T02:28:13.632Z,1.40
2018-06-24T02:30:42.148Z,1.83
2018-06-24T02:33:10.646Z,1.37
2018-06-24T02:35:39.134Z,1.47
2018-06-24T02:38:07.654Z,1.40
2018-06-24T02:40:36.436Z,1.47
2018-06-24T02:43:04.941Z,1.37
2018-06-24T02:45:33.542Z,1.50
2018-06-24T02:48:02.030Z,1.73
2018-06-24T02:50:30.522Z,1.70
2018-06-24T02:52:59.064Z,1.40
2018-06-24T02:55:27.568Z,2.10
2018-06-24T02:57:56.074Z,1.50
2018-06-24T03:00:24.583Z,1.50
2018-06-24T03:02:53.100Z,1.83
2018-06-24T03:05:21.616Z,1.83
2018-06-24T03:07:50.113Z,1.60
2018-06-24T03:10:18.615Z,1.80
2018-06-24T03:12:47.120Z,1.73
2018-06-24T03:15:15.615Z,1.77
2018-06-24T03:17:44.174Z,1.57
2018-06-24T03:20:12.743Z,1.50
2018-06-24T03:22:41.260Z,1.63
2018-06-24T03:25:09.906Z,1.40
2018-06-24T03:27:38.418Z,1.67
2018-06-24T03:30:06.933Z,1.60
2018-06-24T03:32:35.436Z,1.60
2018-06-24T03:35:03.974Z,1.40
2018-06-24T03:37:32.475Z,1.80
2018-06-24T03:40:00.975Z,1.50
2018-06-24T03:42:29.527Z,1.50
2018-06-24T03:44:58.015Z,1.57
2018-06-24T03:47:26.514Z,1.70
2018-06-24T03:49:55.017Z,1.67
2018-06-24T03:52:23.513Z,1.50
2018-06-24T03:54:52.028Z,1.40
2018-06-24T03:57:20.713Z,1.50
2018-06-24T03:59:49.205Z,1.63
2018-06-24T04:02:17.707Z,1.47
2018-06-24T04:04:46.507Z,1.80
2018-06-24T04:07:15.044Z,1.90
2018-06-24T04:09:43.577Z,1.73
2018-06-24T04:12:12.201Z,2.27
2018-06-24T04:14:40.797Z,1.40
2018-06-24T04:17:09.395Z,1.90
2018-06-24T04:19:37.898Z,1.50
2018-06-24T04:22:06.562Z,1.40
2018-06-24T04:24:35.058Z,1.50
2018-06-24T04:27:03.589Z,1.60
2018-06-24T04:29:32.221Z,1.50
2018-06-24T04:32:00.729Z,1.90
2018-06-24T04:34:29.236Z,1.60
2018-06-24T04:36:58.210Z,1.90
2018-06-24T04:39:26.994Z,1.53
2018-06-24T04:41:55.518Z,2.00
2018-06-24T04:44:24.062Z,1.50
2018-06-24T04:46:52.558Z,1.40
2018-06-24T04:49:21.073Z,1.40
2018-06-24T04:51:49.649Z,1.40
2018-06-24T04:54:18.153Z,1.90
2018-06-24T04:56:46.689Z,1.30
2018-06-24T04:59:15.192Z,1.60
2018-06-24T05:01:43.753Z,1.20
2018-06-24T05:04:12.262Z,1.50
2018-06-24T05:06:40.764Z,1.47
2018-06-24T05:09:10.613Z,1.80
2018-06-24T05:11:39.199Z,1.43
2018-06-24T05:14:07.731Z,2.17
2018-06-24T05:16:36.291Z,1.40
2018-06-24T05:19:04.920Z,1.60
2018-06-24T05:21:33.426Z,1.67
2018-06-24T05:24:02.073Z,1.53
2018-06-24T05:26:30.621Z,1.90
2018-06-24T05:28:59.124Z,1.70
2018-06-24T05:31:27.633Z,1.43
2018-06-24T05:33:56.613Z,1.53
2018-06-24T05:36:25.293Z,1.60
2018-06-24T05:38:53.821Z,1.93
2018-06-24T05:41:22.443Z,1.80
2018-06-24T05:43:50.961Z,1.90
2018-06-24T05:46:19.603Z,1.73
2018-06-24T05:48:48.188Z,1.87
2018-06-24T05:51:16.822Z,1.80
2018-06-24T05:53:45.329Z,2.67
2018-06-24T05:56:13.880Z,1.67
2018-06-24T05:58:42.468Z,1.80
2018-06-24T06:01:11.942Z,1.50
2018-06-24T06:03:40.421Z,1.63
2018-06-24T06:06:09.020Z,1.43
2018-06-24T06:08:37.568Z,1.90
2018-06-24T06:11:06.203Z,1.90
2018-06-24T06:13:34.820Z,1.53
2018-06-24T06:16:03.369Z,2.10
2018-06-24T06:18:31.985Z,1.80
2018-06-24T06:21:00.498Z,1.73
2018-06-24T06:23:29.093Z,1.57
2018-06-24T06:25:57.594Z,1.80
2018-06-24T06:28:26.121Z,1.80
2018-06-24T06:30:54.640Z,1.60
2018-06-24T06:33:23.162Z,1.70
2018-06-24T06:35:51.677Z,1.90
2018-06-24T06:38:20.247Z,1.83
2018-06-24T06:40:48.770Z,2.13
2018-06-24T06:44:20.017Z,1.60
2018-06-24T06:46:48.504Z,1.90
2018-06-24T06:49:17.041Z,1.90
2018-06-24T06:51:45.679Z,1.90
2018-06-24T06:54:14.205Z,1.53
2018-06-24T06:56:42.772Z,2.90
2018-06-24T06:59:11.334Z,1.80
2018-06-24T07:01:39.883Z,2.00
2018-06-24T07:04:08.391Z,1.93
2018-06-24T07:06:37.056Z,1.90
2018-06-24T07:09:07.444Z,1.83
2018-06-24T07:11:36.027Z,1.97
2018-06-24T07:14:04.640Z,2.00
2018-06-24T07:16:33.224Z,1.70
2018-06-24T07:19:01.861Z,1.97
2018-06-24T07:21:30.372Z,1.80
2018-06-24T07:23:58.895Z,1.90
2018-06-24T07:26:27.410Z,2.30
2018-06-24T07:28:55.934Z,1.87
2018-06-24T07:31:24.444Z,1.90
2018-06-24T07:33:53.064Z,1.70
2018-06-24T07:36:21.491Z,1.93
2018-06-24T07:38:50.074Z,1.80
2018-06-24T07:41:18.664Z,1.87
2018-06-24T07:43:47.221Z,1.97
2018-06-24T07:46:15.750Z,2.33
2018-06-24T07:48:44.331Z,2.57
2018-06-24T07:51:12.829Z,1.87
2018-06-24T07:53:41.401Z,1.70
2018-06-24T07:56:09.981Z,1.97
2018-06-24T07:58:38.557Z,1.80
2018-06-24T08:01:07.117Z,1.70
2018-06-24T08:03:35.646Z,2.00
2018-06-24T08:06:04.186Z,1.97
2018-06-24T08:08:32.837Z,2.43
2018-06-24T08:11:01.382Z,2.33
2018-06-24T08:13:30.017Z,1.90
2018-06-24T08:15:58.535Z,2.20
2018-06-24T08:18:27.192Z,1.77
2018-06-24T08:20:55.715Z,1.67
2018-06-24T08:23:24.221Z,1.80
2018-06-24T08:25:52.742Z,2.07
2018-06-24T08:28:21.248Z,1.90
2018-06-24T08:30:49.780Z,2.17
2018-06-24T08:33:18.347Z,2.30
2018-06-24T08:35:46.848Z,1.80
2018-06-24T08:38:15.354Z,2.13
2018-06-24T08:40:43.867Z,1.93
2018-06-24T08:43:12.443Z,2.17
2018-06-24T08:45:41.428Z,1.83
2018-06-24T08:48:09.958Z,1.93
2018-06-24T08:50:38.481Z,2.17
2018-06-24T08:53:07.009Z,1.70
2018-06-24T08:55:35.550Z,1.73
2018-06-24T08:58:04.093Z,2.10
2018-06-24T09:00:32.648Z,2.00
2018-06-24T09:03:01.113Z,1.80
2018-06-24T09:05:29.647Z,2.40
2018-06-24T09:07:58.198Z,1.90
2018-06-24T09:10:26.741Z,2.27
2018-06-24T09:12:55.226Z,2.00
2018-06-24T09:15:23.755Z,1.90
2018-06-24T09:17:52.313Z,1.80
2018-06-24T09:20:20.845Z,2.17
2018-06-24T09:22:49.346Z,1.83
2018-06-24T09:25:17.873Z,2.17
2018-06-24T09:27:46.393Z,1.70
2018-06-24T09:30:14.946Z,2.10
2018-06-24T09:32:43.460Z,1.90
2018-06-24T09:35:11.967Z,1.77
2018-06-24T09:37:40.476Z,1.60
2018-06-24T09:40:08.996Z,2.43
2018-06-24T09:42:37.512Z,1.97
2018-06-24T09:45:06.058Z,2.10
2018-06-24T09:47:34.550Z,1.70
2018-06-24T09:50:03.126Z,2.10
2018-06-24T09:52:31.622Z,1.93
2018-06-24T09:55:00.116Z,2.00
2018-06-24T09:57:28.604Z,1.80
2018-06-24T09:59:57.115Z,2.20
2018-06-24T10:02:25.630Z,1.70
2018-06-24T10:04:54.155Z,1.83
2018-06-24T10:07:22.675Z,1.97
2018-06-24T10:09:51.386Z,2.40
2018-06-24T10:12:19.898Z,1.77
2018-06-24T10:14:48.478Z,1.90
2018-06-24T10:17:17.008Z,1.70
2018-06-24T10:19:45.594Z,2.33
2018-06-24T10:22:14.562Z,2.13
2018-06-24T10:24:43.081Z,1.83
2018-06-24T10:27:11.606Z,1.63
2018-06-24T10:29:40.113Z,2.10
2018-06-24T10:32:08.616Z,2.07
2018-06-24T10:34:37.125Z,1.80
2018-06-24T10:37:05.680Z,2.30
2018-06-24T10:39:34.247Z,2.10
2018-06-24T10:42:02.798Z,1.90
2018-06-24T10:44:31.699Z,1.70
2018-06-24T10:47:00.681Z,2.50
2018-06-24T10:49:29.276Z,3.07
2018-06-24T10:51:57.877Z,2.87
2018-06-24T10:54:26.448Z,2.37
2018-06-24T10:56:55.012Z,2.50
2018-06-24T10:59:23.539Z,1.97
2018-06-24T11:01:52.311Z,2.13
2018-06-24T11:04:20.836Z,1.90
2018-06-24T11:06:49.337Z,2.20
2018-06-24T11:09:17.841Z,2.27
2018-06-24T11:11:46.863Z,2.00
2018-06-24T11:14:15.428Z,2.50
2018-06-24T11:16:44.030Z,2.87
2018-06-24T11:19:12.584Z,1.83
2018-06-24T11:21:41.188Z,2.50
2018-06-24T11:24:09.789Z,2.30
2018-06-24T11:26:38.350Z,2.10
2018-06-24T11:29:06.848Z,2.57
2018-06-24T11:31:35.328Z,3.40
2018-06-24T11:34:04.436Z,4.90
2018-06-24T11:36:33.052Z,2.73
2018-06-24T11:39:01.746Z,3.50
2018-06-24T11:41:30.389Z,2.10
2018-06-24T11:43:58.915Z,2.07
2018-06-24T11:46:27.412Z,2.33
2018-06-24T11:48:56.103Z,2.23
2018-06-24T11:51:24.601Z,2.00
2018-06-24T11:53:53.123Z,2.10
2018-06-24T11:56:21.616Z,2.07
2018-06-24T11:58:50.598Z,2.03
2018-06-24T12:01:19.132Z,2.30
2018-06-24T12:03:47.644Z,2.30
2018-06-24T12:06:16.137Z,1.87
2018-06-24T12:08:44.629Z,2.37
2018-06-24T12:11:13.174Z,2.10
2018-06-24T12:13:41.864Z,1.57
2018-06-24T12:16:10.380Z,1.87
2018-06-24T12:18:38.911Z,1.93
2018-06-24T12:21:07.439Z,2.27
2018-06-24T12:23:35.948Z,2.10
2018-06-24T12:26:04.501Z,1.90
2018-06-24T12:28:32.997Z,1.93
2018-06-24T12:31:02.094Z,2.10
2018-06-24T12:33:30.602Z,2.00
2018-06-24T12:35:59.145Z,1.70
2018-06-24T12:38:27.658Z,1.87
2018-06-24T12:40:56.158Z,1.30
2018-06-24T12:43:24.764Z,1.57
2018-06-24T12:45:53.641Z,1.50
2018-06-24T12:48:22.187Z,1.60
2018-06-24T12:50:50.757Z,1.93
2018-06-24T12:53:19.285Z,1.80
2018-06-24T12:55:47.785Z,1.90
2018-06-24T12:58:16.357Z,1.80
2018-06-24T13:00:45.119Z,1.63
2018-06-24T13:03:13.963Z,1.57
2018-06-24T13:05:42.469Z,1.80
2018-06-24T13:08:10.972Z,1.47
2018-06-24T13:10:39.501Z,1.60
2018-06-24T13:13:08.155Z,1.70
2018-06-24T13:15:36.707Z,1.70
2018-06-24T13:18:05.752Z,1.70
2018-06-24T13:20:34.283Z,2.30
2018-06-24T13:23:02.855Z,1.57
2018-06-24T13:25:31.364Z,1.30
2018-06-24T13:27:59.881Z,1.60
2018-06-24T13:30:28.473Z,1.73
2018-06-24T13:32:57.301Z,1.70
2018-06-24T13:35:25.889Z,1.50
2018-06-24T13:37:54.384Z,1.30
2018-06-24T13:40:23.245Z,1.50
2018-06-24T13:42:51.887Z,1.57
2018-06-24T13:45:20.432Z,1.57
2018-06-24T13:47:49.020Z,1.43
2018-06-24T13:50:18.008Z,1.70
2018-06-24T13:52:46.548Z,1.83
2018-06-24T13:55:15.057Z,1.70
2018-06-24T13:57:43.564Z,1.20
2018-06-24T14:00:12.405Z,1.83
2018-06-24T14:02:40.915Z,1.90
2018-06-24T14:05:09.459Z,1.50
2018-06-24T14:07:38.517Z,1.47
2018-06-24T14:10:07.118Z,1.20
2018-06-24T14:12:35.700Z,1.40
2018-06-24T14:15:04.363Z,1.33
2018-06-24T14:17:32.949Z,1.30
2018-06-24T14:20:01.577Z,1.30
2018-06-24T14:22:30.092Z,1.10
2018-06-24T14:24:58.607Z,1.97
2018-06-24T14:27:27.108Z,1.37
2018-06-24T14:29:55.699Z,1.40
2018-06-24T14:32:24.226Z,1.20
2018-06-24T14:34:52.800Z,1.37
2018-06-24T14:37:21.298Z,1.40
2018-06-24T14:39:49.858Z,1.10
2018-06-24T14:42:18.362Z,1.30
2018-06-24T14:44:47.014Z,1.27
2018-06-24T14:47:15.606Z,1.33
2018-06-24T14:49:44.536Z,0.90
2018-06-24T14:52:13.288Z,1.20
2018-06-24T14:54:41.792Z,2.20
2018-06-24T14:57:10.396Z,1.10
2018-06-24T14:59:39.101Z,1.20
2018-06-24T15:02:07.695Z,1.10
2018-06-24T15:04:36.200Z,1.20
2018-06-24T15:07:04.724Z,0.90
2018-06-24T15:09:33.664Z,0.80
2018-06-24T15:12:02.285Z,0.97
2018-06-24T15:14:30.897Z,0.93
2018-06-24T15:16:59.836Z,1.10
2018-06-24T15:19:28.404Z,1.40
2018-06-24T15:21:56.989Z,1.00
2018-06-24T15:24:25.615Z,1.43
2018-06-24T15:26:54.128Z,1.07
2018-06-24T15:29:22.629Z,1.77
2018-06-24T15:31:51.186Z,0.97
2018-06-24T15:34:19.730Z,0.90
2018-06-24T15:36:48.533Z,0.90
2018-06-24T15:39:17.041Z,0.80
2018-06-24T15:41:45.546Z,1.00
2018-06-24T15:44:14.092Z,1.10
2018-06-24T15:46:42.659Z,1.10
2018-06-24T15:49:11.133Z,1.07
2018-06-24T15:51:39.653Z,0.80
2018-06-24T15:54:08.216Z,1.13
2018-06-24T15:56:36.839Z,0.90
2018-06-24T15:59:05.393Z,1.17
2018-06-24T16:01:33.916Z,0.90
2018-06-24T16:04:02.423Z,1.07
2018-06-24T16:06:30.944Z,1.40
2018-06-24T16:08:59.527Z,2.40
2018-06-24T16:11:28.038Z,1.17
2018-06-24T16:13:56.562Z,1.50
2018-06-24T16:16:25.461Z,1.20
2018-06-24T16:18:53.981Z,1.20
2018-06-24T16:21:22.494Z,1.10
2018-06-24T16:23:51.006Z,1.27
2018-06-24T16:26:19.533Z,1.13
2018-06-24T16:28:48.234Z,1.00
2018-06-24T16:31:16.760Z,1.00
2018-06-24T16:33:45.283Z,0.90
2018-06-24T16:36:13.824Z,1.10
2018-06-24T16:38:42.335Z,1.07
2018-06-24T16:41:10.840Z,1.40
2018-06-24T16:43:39.445Z,1.00
2018-06-24T16:46:07.980Z,1.10
2018-06-24T16:48:37.011Z,1.00
2018-06-24T16:51:05.718Z,0.90
2018-06-24T16:53:34.300Z,1.57
2018-06-24T16:56:02.792Z,1.10
2018-06-24T16:58:31.297Z,1.00
2018-06-24T17:00:59.894Z,1.00
2018-06-24T17:03:28.427Z,1.53
2018-06-24T17:05:56.936Z,1.13
2018-06-24T17:08:25.497Z,1.10
2018-06-24T17:10:54.052Z,1.40
2018-06-24T17:13:22.656Z,1.13
2018-06-24T17:15:51.154Z,1.53
2018-06-24T17:18:19.696Z,1.57
2018-06-24T17:20:48.432Z,1.30
2018-06-24T17:23:17.005Z,1.40
2018-06-24T17:25:45.529Z,1.40
2018-06-24T17:28:14.078Z,2.10
2018-06-24T17:30:42.616Z,1.20
2018-06-24T17:33:11.152Z,1.60
2018-06-24T17:35:39.665Z,1.23
2018-06-24T17:38:08.270Z,1.20
2018-06-24T17:40:36.785Z,1.83
2018-06-24T17:43:05.300Z,1.20
2018-06-24T17:45:33.820Z,1.30
2018-06-24T17:48:02.320Z,2.03
2018-06-24T17:50:30.828Z,1.73
2018-06-24T17:52:59.929Z,1.50
2018-06-24T17:55:28.464Z,1.50
2018-06-24T17:57:57.181Z,1.53
2018-06-24T18:00:25.776Z,1.50
2018-06-24T18:02:54.461Z,1.67
2018-06-24T18:05:23.018Z,1.27
2018-06-24T18:07:51.533Z,1.50
2018-06-24T18:10:20.059Z,1.50
2018-06-24T18:12:48.495Z,1.20
2018-06-24T18:15:23.071Z,1.83
2018-06-24T18:17:51.553Z,1.77
2018-06-24T18:20:19.966Z,1.40
2018-06-24T18:22:48.975Z,1.60
2018-06-24T18:25:17.741Z,1.67
2018-06-24T18:27:46.516Z,1.57
2018-06-24T18:30:15.332Z,1.37
2018-06-24T18:32:48.270Z,2.03
2018-06-24T18:35:12.654Z,1.57
2018-06-24T18:37:41.204Z,1.70
2018-06-24T18:40:09.712Z,1.43
2018-06-24T18:42:38.257Z,1.40
2018-06-24T18:45:06.767Z,1.60
2018-06-24T18:47:35.661Z,1.47
2018-06-24T18:50:04.466Z,1.47
2018-06-24T18:52:33.074Z,1.50
2018-06-24T18:55:01.663Z,2.03
2018-06-24T18:57:30.264Z,1.50
2018-06-24T18:59:58.765Z,1.40
2018-06-24T19:02:27.402Z,1.80
2018-06-24T19:04:55.862Z,1.47
2018-06-24T19:07:24.368Z,1.30
2018-06-24T19:09:53.037Z,1.50
2018-06-24T19:12:21.714Z,1.37
2018-06-24T19:14:50.322Z,1.43
2018-06-24T19:17:18.866Z,1.63
2018-06-24T19:19:47.620Z,1.40
2018-06-24T19:22:16.695Z,1.00
2018-06-24T19:24:45.268Z,1.40
2018-06-24T19:27:14.086Z,1.53
2018-06-24T19:29:42.744Z,1.40
2018-06-24T19:32:11.248Z,1.37
2018-06-24T19:34:39.780Z,1.43
2018-06-24T19:37:08.288Z,1.33
2018-06-24T19:39:36.920Z,1.90
2018-06-24T19:42:05.585Z,1.30
2018-06-24T19:44:34.104Z,1.60
2018-06-24T19:47:02.935Z,1.70
2018-06-24T19:49:32.064Z,1.63
2018-06-24T19:52:00.864Z,1.57
2018-06-24T19:54:29.525Z,1.80
2018-06-24T19:56:58.078Z,1.90
2018-06-24T19:59:26.867Z,1.70
2018-06-24T20:01:55.734Z,1.80
2018-06-24T20:04:24.402Z,2.20
2018-06-24T20:06:53.684Z,2.20
2018-06-24T20:09:22.757Z,1.73
2018-06-24T20:11:51.350Z,1.60
2018-06-24T20:14:19.916Z,1.70
2018-06-24T20:16:48.508Z,2.17
2018-06-24T20:19:17.710Z,1.80
2018-06-24T20:21:46.329Z,1.87
2018-06-24T20:24:14.912Z,2.10
2018-06-24T20:26:43.513Z,2.20
2018-06-24T20:29:12.031Z,1.77
2018-06-24T20:31:40.528Z,1.60
2018-06-24T20:34:09.127Z,1.53
2018-06-24T20:36:37.803Z,1.70
2018-06-24T20:39:07.672Z,1.70
2018-06-24T20:41:36.283Z,1.30
2018-06-24T20:44:04.922Z,1.73
2018-06-24T20:46:33.925Z,1.70
2018-06-24T20:49:02.694Z,1.40
2018-06-24T20:51:31.292Z,2.07
2018-06-24T20:53:59.852Z,1.63
2018-06-24T20:56:28.399Z,1.70
2018-06-24T20:58:57.161Z,1.87
2018-06-24T21:01:25.665Z,1.93
2018-06-24T21:03:54.478Z,1.70
2018-06-24T21:06:23.025Z,1.60
2018-06-24T21:08:51.545Z,1.63
2018-06-24T21:11:20.077Z,1.70
2018-06-24T21:13:48.582Z,1.70
2018-06-24T21:16:17.070Z,2.07
2018-06-24T21:18:45.580Z,1.80
2018-06-24T21:21:14.132Z,1.50
2018-06-24T21:23:42.656Z,1.50
2018-06-24T21:26:11.237Z,1.70
2018-06-24T21:28:39.881Z,1.83
2018-06-24T21:31:08.448Z,1.90
2018-06-24T21:33:37.037Z,1.67
2018-06-24T21:36:05.556Z,1.67
2018-06-24T21:38:34.505Z,1.83
2018-06-24T21:41:03.042Z,1.33
2018-06-24T21:43:31.565Z,1.83
2018-06-24T21:46:00.077Z,1.50
2018-06-24T21:48:28.653Z,1.60
2018-06-24T21:50:57.195Z,1.73
2018-06-24T21:53:25.692Z,1.60
2018-06-24T21:55:54.193Z,1.70
2018-06-24T21:58:22.696Z,1.67
2018-06-24T22:00:51.217Z,1.80
2018-06-24T22:03:19.762Z,1.70
2018-06-24T22:05:48.274Z,1.70
2018-06-24T22:08:16.799Z,1.97
2018-06-24T22:10:45.823Z,1.50
2018-06-24T22:13:14.344Z,1.80
2018-06-24T22:15:43.239Z,2.50
2018-06-24T22:18:11.731Z,2.23
2018-06-24T22:20:40.260Z,1.90
2018-06-24T22:23:08.757Z,2.00
2018-06-24T22:25:37.240Z,1.80
2018-06-24T22:28:06.194Z,1.93
2018-06-24T22:30:34.684Z,1.73
2018-06-24T22:33:03.184Z,1.80
2018-06-24T22:35:31.693Z,1.60
2018-06-24T22:38:00.192Z,1.60
2018-06-24T22:40:28.713Z,1.57
2018-06-24T22:42:57.437Z,1.50
2018-06-24T22:45:25.928Z,1.93
2018-06-24T22:47:54.445Z,1.87
2018-06-24T22:50:22.936Z,2.40
2018-06-24T22:52:51.429Z,2.00
2018-06-24T22:55:19.939Z,1.80
2018-06-24T22:57:48.423Z,1.70
2018-06-24T23:00:17.793Z,1.80
2018-06-24T23:02:46.542Z,2.20
2018-06-24T23:05:15.163Z,1.53
2018-06-24T23:07:44.725Z,2.03
2018-06-24T23:10:13.646Z,1.70
2018-06-24T23:12:42.141Z,1.83
2018-06-24T23:15:11.165Z,2.23
2018-06-24T23:17:40.122Z,1.80
2018-06-24T23:20:09.441Z,2.20
2018-06-24T23:22:37.948Z,2.00
2018-06-24T23:25:06.505Z,2.03
2018-06-24T23:27:35.005Z,2.00
2018-06-24T23:30:03.801Z,1.80
2018-06-24T23:32:32.304Z,1.90
2018-06-24T23:35:00.880Z,1.73
2018-06-24T23:37:29.442Z,1.80
2018-06-24T23:39:57.942Z,2.10
2018-06-24T23:42:26.447Z,1.70
2018-06-24T23:44:54.936Z,1.67
2018-06-24T23:47:23.505Z,1.73
2018-06-24T23:49:52.015Z,1.90
2018-06-24T23:52:20.530Z,1.70
2018-06-24T23:54:49.033Z,1.67
2018-06-24T23:57:17.527Z,1.60
2018-06-24T23:59:46.051Z,1.60
